East Princeton, MA (01517)

4:33 PM EST on January 28, 2015 (GMT -0500)
Wilder Road | Change Station
CLOSE
Current Station
Personal Weather Station
Location: Sterling, MA
Elevation: 489 ft
Nearby Weather Stations

Elev 489 ft 42.44 °N, 71.80 °W | Updated 0 second ago

Partly Cloudy
Partly Cloudy
24.7 °F
Feels Like 25 °F
N
1.0
Wind Variable Wind from NW
Gusts 2.0 mph

Today
High -- | Low -- °F
--% Chance of Precip.
Yesterday
High -- | Low -- °F
Precip. -- in
7:05 AM 4:55 PM
Waxing Gibbous, 68% visible
Pressure 30.04 in
Visibility 10.0 miles
Clouds Clear
Windchill 25 °F
Dew Point 10 °F
Humidity 54%
Rainfall 0.00 in
Snow Depth Not available.
UV 0 out of 12
Pollen .10 out of 12
Air Quality Not available.
Flu Activity Not available.
METAR KFIT 282052Z AUTO 34014G20KT 10SM CLR M04/M13 A3002 RMK AO2 SLP173 T10391133 51020

More Conditions Fewer Conditions

Pressure 30.04 in
Visibility 10.0 miles
Clouds Clear
Windchill 25 °F
Dew Point 10 °F
Humidity 54%
Rainfall 0.00 in
Snow Depth Not available.
UV 0 out of 12
Pollen .10 out of 12
Air Quality Not available.
Flu Activity Not available.
METAR KFIT 282052Z AUTO 34014G20KT 10SM CLR M04/M13 A3002 RMK AO2 SLP173 T10391133 51020

More Conditions Fewer Conditions

10-Day Weather Forecast

Almanac

Astronomy

Jan. 28, 2015 Rise Set
Actual Time
Civil Twilight
Nautical Twilight
Astronomical Twilight
Moon
Length of Visible Light
Length of Day
Tomorrow will be .
, % of the Moon is Illuminated

Today's Extremes

State Highs State Lows

Community

WunderPhotos

Upload Photos

1,791,269 photos uploaded!

WunderBlogs® & News

Nearby

Air Quality

  Air Quality AQ Index Pollutant
Not available.

Snow Depth

Station Depth Elevation

Earthquake Activity

City Distance Mag. Time & Date
Minimum magnitude displayed is 2.5.

Coastal Water Temperatures

Place Temperature

Nearby Weather Stations